createdAt,value
2018-08-20T00:00:45.327Z,2.50
2018-08-20T00:03:13.567Z,2.43
2018-08-20T00:05:45.419Z,2.60
2018-08-20T00:08:13.724Z,1.70
2018-08-20T00:10:42.001Z,2.03
2018-08-20T00:13:10.263Z,1.77
2018-08-20T00:15:38.489Z,2.30
2018-08-20T00:18:06.743Z,2.33
2018-08-20T00:20:34.945Z,2.17
2018-08-20T00:23:03.139Z,2.50
2018-08-20T00:25:31.335Z,1.63
2018-08-20T00:27:59.651Z,2.50
2018-08-20T00:30:27.865Z,2.37
2018-08-20T00:32:56.054Z,2.23
2018-08-20T00:35:24.298Z,2.30
2018-08-20T00:37:53.265Z,2.27
2018-08-20T00:40:21.993Z,2.47
2018-08-20T00:42:50.252Z,2.20
2018-08-20T00:45:18.507Z,2.47
2018-08-20T00:47:46.703Z,2.73
2018-08-20T00:50:14.927Z,2.00
2018-08-20T00:52:43.588Z,2.30
2018-08-20T00:55:12.677Z,2.03
2018-08-20T00:57:41.255Z,2.00
2018-08-20T01:00:10.328Z,2.57
2018-08-20T01:02:38.527Z,2.30
2018-08-20T01:05:06.744Z,1.73
2018-08-20T01:07:35.219Z,3.20
2018-08-20T01:10:03.543Z,2.77
2018-08-20T01:12:31.773Z,2.70
2018-08-20T01:14:59.963Z,2.20
2018-08-20T01:17:28.155Z,2.33
2018-08-20T01:19:56.358Z,2.77
2018-08-20T01:22:24.555Z,1.70
2018-08-20T01:24:52.794Z,2.43
2018-08-20T01:27:27.680Z,2.70
2018-08-20T01:29:56.084Z,2.50
2018-08-20T01:32:24.350Z,3.77
2018-08-20T01:34:52.557Z,2.40
2018-08-20T01:37:21.520Z,2.60
2018-08-20T01:39:50.291Z,2.80
2018-08-20T01:42:18.783Z,2.33
2018-08-20T01:44:47.515Z,2.60
2018-08-20T01:47:15.721Z,2.90
2018-08-20T01:49:43.977Z,2.80
2018-08-20T01:52:12.189Z,1.90
2018-08-20T01:54:40.389Z,2.50
2018-08-20T01:57:08.573Z,2.43
2018-08-20T01:59:37.669Z,3.07
2018-08-20T02:02:05.977Z,2.13
2018-08-20T02:04:34.231Z,2.43
2018-08-20T02:07:02.503Z,2.60
2018-08-20T02:09:30.703Z,2.37
2018-08-20T02:11:58.935Z,2.97
2018-08-20T02:14:27.405Z,1.90
2018-08-20T02:16:55.772Z,2.80
2018-08-20T02:19:24.041Z,3.50
2018-08-20T02:21:52.237Z,2.20
2018-08-20T02:24:20.439Z,2.63
2018-08-20T02:26:48.625Z,2.53
2018-08-20T02:29:16.883Z,2.23
2018-08-20T02:31:45.194Z,2.17
2018-08-20T02:34:13.417Z,2.50
2018-08-20T02:36:41.683Z,2.63
2018-08-20T02:39:12.350Z,2.67
2018-08-20T02:41:41.028Z,2.20
2018-08-20T02:44:10.024Z,2.77
2018-08-20T02:46:45.212Z,2.90
2018-08-20T02:49:14.287Z,3.00
2018-08-20T02:51:42.484Z,2.17
2018-08-20T02:54:11.546Z,2.57
2018-08-20T02:56:40.109Z,2.30
2018-08-20T02:59:08.330Z,2.47
2018-08-20T03:01:36.725Z,2.87
2018-08-20T03:04:05.180Z,3.20
2018-08-20T03:06:33.440Z,1.90
2018-08-20T03:09:01.621Z,3.10
2018-08-20T03:11:30.016Z,2.67
2018-08-20T03:13:58.220Z,3.20
2018-08-20T03:16:26.450Z,3.77
2018-08-20T03:18:54.694Z,2.70
2018-08-20T03:21:22.928Z,2.10
2018-08-20T03:23:51.129Z,2.47
2018-08-20T03:26:19.350Z,2.33
2018-08-20T03:28:47.594Z,2.73
2018-08-20T03:31:15.852Z,3.00
2018-08-20T03:33:44.062Z,1.80
2018-08-20T03:36:12.262Z,3.03
2018-08-20T03:38:40.540Z,2.77
2018-08-20T03:41:08.767Z,2.30
2018-08-20T03:43:36.971Z,2.40
2018-08-20T03:46:05.376Z,2.27
2018-08-20T03:48:33.620Z,3.27
2018-08-20T03:51:02.004Z,3.10
2018-08-20T03:53:30.204Z,2.60
2018-08-20T03:55:58.416Z,2.77
2018-08-20T03:58:26.676Z,2.73
2018-08-20T04:00:54.928Z,2.57
2018-08-20T04:03:23.118Z,3.10
2018-08-20T04:05:51.380Z,3.07
2018-08-20T04:08:19.798Z,1.83
2018-08-20T04:10:48.060Z,2.00
2018-08-20T04:13:16.318Z,2.43
2018-08-20T04:15:44.528Z,2.30
2018-08-20T04:18:12.746Z,2.30
2018-08-20T04:20:40.946Z,2.90
2018-08-20T04:23:09.178Z,2.10
2018-08-20T04:25:37.377Z,2.43
2018-08-20T04:28:05.644Z,3.17
2018-08-20T04:30:33.933Z,2.87
2018-08-20T04:33:02.118Z,3.10
2018-08-20T04:35:30.325Z,2.50
2018-08-20T04:37:58.658Z,2.03
2018-08-20T04:40:26.879Z,1.93
2018-08-20T04:42:55.062Z,2.63
2018-08-20T04:45:23.298Z,2.20
2018-08-20T04:47:51.556Z,1.97
2018-08-20T04:50:20.004Z,2.13
2018-08-20T04:52:47.977Z,3.30
2018-08-20T04:55:16.176Z,2.63
2018-08-20T04:57:44.382Z,3.20
2018-08-20T05:00:12.602Z,3.27
2018-08-20T05:02:40.901Z,3.17
2018-08-20T05:05:09.148Z,2.53
2018-08-20T05:07:37.350Z,3.33
2018-08-20T05:10:05.802Z,2.83
2018-08-20T05:12:33.982Z,2.07
2018-08-20T05:15:02.188Z,2.27
2018-08-20T05:17:30.378Z,2.20
2018-08-20T05:19:58.586Z,3.53
2018-08-20T05:22:26.796Z,2.73
2018-08-20T05:24:54.976Z,3.10
2018-08-20T05:27:23.171Z,3.97
2018-08-20T05:29:51.406Z,3.87
2018-08-20T05:32:19.720Z,3.00
2018-08-20T05:34:48.058Z,2.97
2018-08-20T05:37:16.272Z,2.83
2018-08-20T05:39:44.462Z,3.10
2018-08-20T05:42:12.697Z,2.57
2018-08-20T05:44:40.915Z,2.00
2018-08-20T05:47:09.124Z,2.83
2018-08-20T05:49:37.352Z,2.40
2018-08-20T05:52:05.779Z,2.30
2018-08-20T05:54:33.962Z,2.83
2018-08-20T05:57:02.154Z,2.80
2018-08-20T05:59:30.366Z,2.73
2018-08-20T06:01:58.588Z,3.13
2018-08-20T06:04:26.814Z,2.93
2018-08-20T06:06:55.038Z,2.47
2018-08-20T06:09:23.242Z,3.20
2018-08-20T06:11:51.467Z,2.57
2018-08-20T06:14:19.773Z,3.47
2018-08-20T06:16:47.982Z,2.87
2018-08-20T06:19:16.182Z,2.03
2018-08-20T06:21:44.403Z,2.50
2018-08-20T06:24:12.786Z,2.90
2018-08-20T06:26:40.993Z,3.53
2018-08-20T06:29:09.217Z,3.03
2018-08-20T06:31:37.452Z,2.37
2018-08-20T06:34:05.771Z,3.80
2018-08-20T06:36:33.973Z,1.97
2018-08-20T06:39:02.174Z,2.67
2018-08-20T06:41:30.474Z,2.67
2018-08-20T06:43:58.665Z,2.37
2018-08-20T06:46:26.891Z,2.50
2018-08-20T06:48:55.155Z,2.40
2018-08-20T06:51:23.355Z,3.47
2018-08-20T06:53:51.576Z,3.07
2018-08-20T06:56:19.804Z,2.53
2018-08-20T06:58:48.020Z,2.77
2018-08-20T07:01:16.215Z,3.00
2018-08-20T07:03:44.425Z,2.50
2018-08-20T07:06:12.635Z,2.80
2018-08-20T07:08:40.852Z,2.00
2018-08-20T07:11:09.073Z,2.57
2018-08-20T07:13:37.866Z,2.10
2018-08-20T07:16:07.353Z,3.13
2018-08-20T07:18:35.577Z,3.60
2018-08-20T07:21:03.779Z,2.83
2018-08-20T07:23:32.109Z,3.27
2018-08-20T07:26:00.223Z,3.50
2018-08-20T07:28:28.430Z,3.33
2018-08-20T07:30:56.641Z,2.83
2018-08-20T07:33:24.817Z,2.70
2018-08-20T07:35:53.023Z,2.75
2018-08-20T07:38:21.275Z,3.27
2018-08-20T07:40:50.312Z,2.90
2018-08-20T07:43:18.536Z,2.77
2018-08-20T07:45:46.790Z,2.30
2018-08-20T07:48:14.987Z,2.43
2018-08-20T07:50:43.213Z,3.10
2018-08-20T07:53:11.459Z,2.50
2018-08-20T07:55:39.736Z,3.00
2018-08-20T07:58:08.153Z,3.27
2018-08-20T08:00:36.603Z,4.73
2018-08-20T08:03:04.845Z,3.27
2018-08-20T08:05:33.055Z,3.23
2018-08-20T08:08:01.345Z,3.20
2018-08-20T08:10:29.559Z,3.57
2018-08-20T08:12:57.771Z,3.20
2018-08-20T08:15:26.064Z,3.87
2018-08-20T08:17:54.294Z,3.27
2018-08-20T08:20:22.505Z,3.20
2018-08-20T08:22:50.704Z,4.00
2018-08-20T08:25:18.936Z,4.30
2018-08-20T08:27:47.143Z,3.20
2018-08-20T08:30:17.529Z,3.60
2018-08-20T08:32:46.094Z,3.13
2018-08-20T08:35:14.563Z,4.17
2018-08-20T08:37:42.858Z,3.70
2018-08-20T08:40:12.515Z,3.57
2018-08-20T08:42:40.747Z,3.37
2018-08-20T08:45:11.531Z,4.03
2018-08-20T08:47:39.787Z,3.60
2018-08-20T08:50:08.009Z,3.63
2018-08-20T08:52:36.383Z,3.00
2018-08-20T08:55:05.075Z,4.43
2018-08-20T08:57:33.299Z,3.50
2018-08-20T09:00:01.497Z,2.77
2018-08-20T09:02:29.705Z,2.73
2018-08-20T09:04:57.925Z,3.33
2018-08-20T09:07:26.144Z,3.77
2018-08-20T09:09:54.358Z,3.30
2018-08-20T09:12:22.594Z,4.23
2018-08-20T09:14:50.800Z,2.50
2018-08-20T09:17:18.997Z,3.23
2018-08-20T09:19:47.208Z,3.03
2018-08-20T09:22:15.420Z,3.90
2018-08-20T09:24:43.618Z,3.40
2018-08-20T09:27:11.840Z,3.23
2018-08-20T09:29:40.038Z,4.00
2018-08-20T09:32:08.242Z,3.33
2018-08-20T09:34:36.474Z,2.90
2018-08-20T09:37:05.100Z,2.83
2018-08-20T09:39:33.315Z,2.90
2018-08-20T09:42:01.542Z,2.70
2018-08-20T09:44:29.976Z,3.10
2018-08-20T09:46:58.149Z,3.70
2018-08-20T09:49:26.357Z,2.53
2018-08-20T09:51:54.553Z,2.80
2018-08-20T09:54:22.762Z,3.27
2018-08-20T09:56:50.976Z,3.97
2018-08-20T09:59:19.163Z,2.70
2018-08-20T10:01:47.388Z,2.20
2018-08-20T10:04:15.588Z,2.87
2018-08-20T10:06:43.802Z,2.87
2018-08-20T10:09:12.010Z,2.03
2018-08-20T10:11:40.192Z,2.43
2018-08-20T10:14:08.433Z,2.73
2018-08-20T10:16:36.655Z,2.40
2018-08-20T10:19:04.875Z,2.70
2018-08-20T10:21:33.073Z,1.80
2018-08-20T10:24:01.275Z,2.20
2018-08-20T10:26:29.478Z,2.27
2018-08-20T10:28:57.855Z,2.00
2018-08-20T10:31:26.046Z,2.13
2018-08-20T10:33:54.252Z,2.90
2018-08-20T10:36:22.451Z,2.07
2018-08-20T10:38:50.676Z,2.00
2018-08-20T10:41:18.877Z,1.50
2018-08-20T10:43:47.092Z,2.00
2018-08-20T10:46:19.371Z,2.03
2018-08-20T10:48:47.736Z,2.33
2018-08-20T10:51:15.993Z,1.83
2018-08-20T10:53:44.140Z,1.60
2018-08-20T10:56:12.391Z,2.00
2018-08-20T10:58:40.585Z,1.97
2018-08-20T11:01:09.355Z,2.03
2018-08-20T11:03:38.657Z,1.50
2018-08-20T11:06:06.871Z,1.30
2018-08-20T11:08:35.073Z,1.83
2018-08-20T11:11:03.287Z,1.80
2018-08-20T11:13:31.467Z,2.07
2018-08-20T11:15:59.663Z,1.37
2018-08-20T11:18:28.046Z,2.00
2018-08-20T11:20:56.063Z,1.70
2018-08-20T11:23:24.289Z,1.60
2018-08-20T11:25:52.501Z,1.57
2018-08-20T11:28:20.781Z,1.77
2018-08-20T11:30:48.977Z,1.67
2018-08-20T11:33:17.209Z,1.70
2018-08-20T11:35:45.402Z,1.90
2018-08-20T11:38:13.597Z,2.17
2018-08-20T11:40:41.816Z,1.90
2018-08-20T11:43:10.006Z,1.43
2018-08-20T11:45:38.202Z,1.43
2018-08-20T11:48:06.447Z,1.73
2018-08-20T11:50:34.656Z,1.17
2018-08-20T11:53:02.845Z,1.80
2018-08-20T11:55:31.067Z,1.40
2018-08-20T11:57:59.559Z,1.20
2018-08-20T12:00:27.755Z,1.40
2018-08-20T12:02:55.949Z,1.50
2018-08-20T12:05:24.153Z,1.77
2018-08-20T12:07:52.425Z,1.30
2018-08-20T12:10:20.638Z,1.30
2018-08-20T12:12:48.846Z,1.77
2018-08-20T12:15:17.091Z,1.00
2018-08-20T12:17:45.329Z,1.10
2018-08-20T12:20:13.544Z,1.17
2018-08-20T12:22:41.759Z,1.43
2018-08-20T12:25:12.037Z,1.67
2018-08-20T12:27:40.236Z,1.00
2018-08-20T12:30:09.419Z,1.40
2018-08-20T12:32:37.647Z,1.13
2018-08-20T12:35:06.117Z,1.17
2018-08-20T12:37:34.307Z,1.33
2018-08-20T12:40:02.666Z,1.33
2018-08-20T12:42:30.745Z,1.47
2018-08-20T12:44:58.963Z,1.30
2018-08-20T12:47:27.153Z,1.00
2018-08-20T12:49:55.359Z,1.57
2018-08-20T12:52:23.666Z,1.70
2018-08-20T12:54:51.893Z,1.10
2018-08-20T12:57:20.156Z,1.53
2018-08-20T12:59:52.887Z,1.40
2018-08-20T13:02:21.077Z,1.10
2018-08-20T13:04:49.319Z,1.50
2018-08-20T13:07:17.571Z,1.50
2018-08-20T13:09:45.794Z,1.20
2018-08-20T13:12:14.407Z,1.20
2018-08-20T13:14:42.608Z,1.77
2018-08-20T13:17:10.834Z,1.37
2018-08-20T13:19:39.351Z,0.90
2018-08-20T13:22:07.587Z,1.27
2018-08-20T13:24:35.796Z,1.33
2018-08-20T13:27:04.012Z,1.47
2018-08-20T13:29:32.215Z,1.53
2018-08-20T13:32:00.435Z,1.23
2018-08-20T13:34:28.750Z,1.70
2018-08-20T13:36:56.944Z,1.87
2018-08-20T13:39:25.191Z,1.23
2018-08-20T13:41:53.564Z,1.10
2018-08-20T13:44:21.880Z,1.43
2018-08-20T13:46:50.083Z,1.23
2018-08-20T13:49:18.368Z,1.27
2018-08-20T13:51:46.586Z,1.60
2018-08-20T13:54:14.785Z,1.70
2018-08-20T13:56:42.996Z,1.87
2018-08-20T13:59:11.234Z,1.70
2018-08-20T14:01:39.447Z,1.80
2018-08-20T14:04:07.665Z,2.40
2018-08-20T14:06:35.892Z,1.40
2018-08-20T14:09:05.758Z,1.17
2018-08-20T14:11:33.966Z,1.63
2018-08-20T14:14:02.151Z,1.20
2018-08-20T14:16:30.381Z,1.40
2018-08-20T14:18:58.718Z,1.30
2018-08-20T14:21:26.932Z,1.30
2018-08-20T14:23:55.130Z,1.20
2018-08-20T14:26:23.317Z,1.17
2018-08-20T14:28:51.554Z,1.73
2018-08-20T14:31:19.808Z,1.27
2018-08-20T14:33:48.079Z,1.60
2018-08-20T14:36:16.282Z,1.27
2018-08-20T14:38:44.498Z,1.10
2018-08-20T14:41:12.711Z,1.10
2018-08-20T14:43:40.940Z,1.40
2018-08-20T14:46:26.580Z,1.17
2018-08-20T14:48:54.785Z,0.97
2018-08-20T14:51:22.970Z,1.10
2018-08-20T14:53:51.190Z,0.93
2018-08-20T14:56:19.454Z,1.10
2018-08-20T14:58:47.656Z,1.50
2018-08-20T15:01:15.870Z,1.50
2018-08-20T15:03:44.100Z,1.27
2018-08-20T15:06:12.320Z,1.27
2018-08-20T15:08:40.600Z,1.10
2018-08-20T15:11:09.012Z,1.03
2018-08-20T15:13:37.296Z,1.53
2018-08-20T15:16:05.591Z,1.20
2018-08-20T15:18:33.995Z,1.03
2018-08-20T15:21:02.190Z,1.30
2018-08-20T15:23:30.436Z,1.40
2018-08-20T15:25:58.678Z,1.57
2018-08-20T15:28:26.887Z,1.30
2018-08-20T15:30:55.126Z,1.30
2018-08-20T15:33:23.339Z,1.07
2018-08-20T15:35:51.846Z,1.17
2018-08-20T15:38:20.052Z,1.43
2018-08-20T15:40:48.509Z,1.20
2018-08-20T15:43:16.720Z,1.10
2018-08-20T15:45:44.968Z,1.50
2018-08-20T15:48:13.254Z,1.30
2018-08-20T15:50:41.517Z,1.20
2018-08-20T15:53:09.761Z,1.20
2018-08-20T15:55:37.943Z,1.10
2018-08-20T15:58:06.265Z,1.70
2018-08-20T16:00:34.483Z,1.40
2018-08-20T16:03:02.727Z,1.07
2018-08-20T16:05:30.914Z,1.97
2018-08-20T16:07:59.288Z,1.77
2018-08-20T16:10:27.585Z,1.63
2018-08-20T16:12:55.847Z,1.13
2018-08-20T16:15:24.015Z,1.63
2018-08-20T16:17:52.289Z,1.77
2018-08-20T16:20:20.534Z,1.33
2018-08-20T16:22:48.727Z,1.57
2018-08-20T16:25:16.955Z,1.50
2018-08-20T16:27:45.148Z,1.67
2018-08-20T16:30:14.154Z,1.60
2018-08-20T16:32:42.356Z,2.10
2018-08-20T16:35:11.974Z,1.20
2018-08-20T16:37:40.787Z,1.83
2018-08-20T16:40:09.026Z,1.57
2018-08-20T16:42:37.234Z,1.20
2018-08-20T16:45:06.908Z,1.10
2018-08-20T16:47:35.354Z,1.73
2018-08-20T16:50:03.622Z,2.17
2018-08-20T16:52:31.820Z,1.53
2018-08-20T16:55:00.045Z,1.63
2018-08-20T16:57:28.258Z,1.30
2018-08-20T16:59:56.549Z,1.30
2018-08-20T17:02:28.110Z,1.77
2018-08-20T17:04:56.376Z,1.60
2018-08-20T17:07:24.562Z,2.17
2018-08-20T17:09:53.081Z,2.40
2018-08-20T17:12:21.299Z,2.10
2018-08-20T17:14:49.622Z,2.37
2018-08-20T17:17:17.800Z,2.20
2018-08-20T17:19:46.697Z,2.87
2018-08-20T17:22:15.051Z,2.37
2018-08-20T17:24:43.255Z,2.80
2018-08-20T17:27:11.929Z,2.00
2018-08-20T17:29:40.171Z,2.00
2018-08-20T17:32:09.219Z,1.67
2018-08-20T17:34:39.441Z,2.70
2018-08-20T17:37:07.632Z,2.00
2018-08-20T17:39:50.103Z,2.13
2018-08-20T17:42:18.395Z,2.20
2018-08-20T17:44:46.693Z,1.80
2018-08-20T17:47:19.161Z,2.30
2018-08-20T17:49:47.456Z,1.63
2018-08-20T17:52:15.641Z,2.67
2018-08-20T17:54:43.875Z,1.67
2018-08-20T17:57:12.104Z,2.40
2018-08-20T17:59:40.403Z,1.90
2018-08-20T18:02:12.900Z,1.47
2018-08-20T18:04:41.126Z,2.50
2018-08-20T18:07:09.353Z,1.50
2018-08-20T18:09:37.556Z,1.50
2018-08-20T18:12:05.773Z,2.20
2018-08-20T18:14:33.967Z,1.43
2018-08-20T18:17:02.193Z,1.70
2018-08-20T18:19:30.424Z,1.50
2018-08-20T18:21:58.695Z,1.70
2018-08-20T18:24:26.918Z,1.63
2018-08-20T18:26:56.496Z,1.27
2018-08-20T18:29:24.738Z,1.43
2018-08-20T18:31:53.762Z,2.00
2018-08-20T18:34:21.967Z,2.00
2018-08-20T18:36:50.472Z,1.40
2018-08-20T18:39:18.723Z,1.57
2018-08-20T18:41:50.284Z,1.83
2018-08-20T18:44:18.727Z,1.50
2018-08-20T18:46:46.962Z,1.57
2018-08-20T18:49:15.189Z,1.60
2018-08-20T18:51:43.727Z,1.73
2018-08-20T18:54:12.040Z,1.53
2018-08-20T18:56:40.138Z,1.27
2018-08-20T18:59:08.635Z,1.60
2018-08-20T19:01:37.882Z,1.50
2018-08-20T19:04:06.110Z,1.60
2018-08-20T19:06:34.351Z,2.37
2018-08-20T19:09:02.731Z,1.63
2018-08-20T19:11:30.937Z,1.70
2018-08-20T19:14:04.457Z,1.23
2018-08-20T19:16:36.882Z,1.90
2018-08-20T19:19:06.300Z,1.80
2018-08-20T19:21:38.845Z,1.77
2018-08-20T19:24:07.900Z,1.50
2018-08-20T19:26:36.427Z,2.40
2018-08-20T19:29:22.854Z,1.77
2018-08-20T19:31:51.058Z,2.27
2018-08-20T19:34:19.255Z,1.80
2018-08-20T19:36:47.470Z,1.60
2018-08-20T19:39:15.702Z,1.80
2018-08-20T19:41:43.938Z,2.33
2018-08-20T19:44:12.169Z,2.30
2018-08-20T19:46:40.380Z,1.70
2018-08-20T19:49:12.458Z,2.20
2018-08-20T19:51:42.077Z,2.33
2018-08-20T19:54:12.499Z,2.90
2018-08-20T19:56:40.746Z,2.50
2018-08-20T19:59:09.708Z,3.00
2018-08-20T20:01:37.988Z,2.80
2018-08-20T20:04:06.194Z,1.93
2018-08-20T20:06:34.428Z,1.93
2018-08-20T20:09:07.731Z,2.20
2018-08-20T20:11:41.143Z,2.30
2018-08-20T20:14:09.403Z,2.60
2018-08-20T20:16:43.084Z,2.33
2018-08-20T20:19:11.799Z,2.00
2018-08-20T20:21:40.014Z,2.10
2018-08-20T20:24:08.986Z,2.13
2018-08-20T20:26:37.168Z,3.60
2018-08-20T20:29:06.673Z,2.23
2018-08-20T20:31:34.912Z,1.77
2018-08-20T20:34:03.350Z,2.50
2018-08-20T20:36:32.266Z,2.40
2018-08-20T20:39:00.813Z,2.37
2018-08-20T20:41:29.070Z,2.20
2018-08-20T20:43:57.302Z,2.40
2018-08-20T20:46:26.120Z,2.37
2018-08-20T20:48:54.496Z,1.97
2018-08-20T20:51:22.676Z,1.93
2018-08-20T20:53:50.885Z,1.90
2018-08-20T20:56:19.104Z,2.70
2018-08-20T20:58:47.308Z,1.80
2018-08-20T21:01:15.665Z,2.00
2018-08-20T21:03:43.769Z,1.90
2018-08-20T21:06:11.980Z,1.40
2018-08-20T21:08:46.258Z,1.97
2018-08-20T21:11:15.369Z,2.10
2018-08-20T21:13:44.016Z,1.87
2018-08-20T21:16:13.704Z,2.53
2018-08-20T21:18:49.320Z,2.07
2018-08-20T21:21:18.294Z,2.30
2018-08-20T21:23:46.540Z,2.10
2018-08-20T21:26:14.940Z,2.27
2018-08-20T21:28:51.410Z,2.27
2018-08-20T21:31:20.830Z,1.87
2018-08-20T21:33:53.640Z,2.40
2018-08-20T21:36:21.828Z,1.80
2018-08-20T21:38:50.069Z,1.27
2018-08-20T21:41:23.182Z,2.60
2018-08-20T21:43:51.542Z,2.30
2018-08-20T21:46:19.751Z,1.90
2018-08-20T21:48:48.052Z,1.50
2018-08-20T21:51:21.635Z,2.27
2018-08-20T21:53:49.978Z,2.03
2018-08-20T21:56:18.186Z,2.63
2018-08-20T21:58:46.396Z,1.97
2018-08-20T22:01:15.885Z,1.93
2018-08-20T22:03:44.456Z,1.50
2018-08-20T22:06:13.168Z,1.77
2018-08-20T22:08:41.444Z,2.23
2018-08-20T22:11:10.762Z,2.00
2018-08-20T22:13:39.130Z,1.50
2018-08-20T22:16:15.998Z,1.60
2018-08-20T22:18:45.439Z,1.20
2018-08-20T22:21:14.864Z,1.83
2018-08-20T22:23:44.078Z,1.60
2018-08-20T22:26:14.598Z,1.60
2018-08-20T22:28:43.142Z,1.40
2018-08-20T22:31:11.348Z,1.70
2018-08-20T22:33:39.708Z,1.63
2018-08-20T22:36:08.826Z,2.30
2018-08-20T22:38:42.530Z,1.60
2018-08-20T22:41:10.839Z,1.70
2018-08-20T22:43:39.054Z,1.83
2018-08-20T22:46:07.278Z,2.10
2018-08-20T22:48:35.478Z,2.00
2018-08-20T22:51:13.746Z,1.63
2018-08-20T22:53:45.084Z,1.50
2018-08-20T22:56:21.470Z,2.00
2018-08-20T22:58:49.698Z,2.37
2018-08-20T23:01:18.030Z,1.97
2018-08-20T23:03:46.240Z,2.10
2018-08-20T23:06:14.456Z,2.03
2018-08-20T23:08:42.746Z,1.63
2018-08-20T23:11:11.090Z,2.37
2018-08-20T23:13:39.300Z,2.57
2018-08-20T23:16:07.513Z,1.53
2018-08-20T23:18:35.794Z,1.50
2018-08-20T23:21:04.060Z,1.50
2018-08-20T23:23:34.714Z,1.70
2018-08-20T23:26:06.630Z,2.30
2018-08-20T23:28:36.440Z,1.60
2018-08-20T23:31:04.655Z,2.20
2018-08-20T23:33:33.670Z,2.03
2018-08-20T23:36:01.907Z,2.00
2018-08-20T23:38:30.107Z,2.00
2018-08-20T23:40:58.935Z,1.40
2018-08-20T23:43:27.419Z,2.20
2018-08-20T23:45:55.621Z,2.23
2018-08-20T23:48:24.029Z,2.27
2018-08-20T23:51:00.014Z,1.73
2018-08-20T23:53:28.870Z,2.07
2018-08-20T23:55:57.393Z,1.80
2018-08-20T23:58:25.591Z,1.50
